Time;durP1;ratioP1;P1;durP2;ratioP2;P2;SDS_P1;SDS_P2;PMS_P1;PMS_P2;Temp;Humidity;BMP_temperature;BMP_pressure;BME280_temperature;BME280_humidity;BME280_pressure;Samples;Min_cycle;Max_cycle;Signal;HPM_P1;HPM_P2
2021/11/16 00:01:38;;;;;;;23.65;15.82;;;;;;;11.65;64.54;99160.81;5093118;28;20085;-52
2021/11/16 00:04:07;;;;;;;23.13;15.32;;;;;;;11.60;64.66;99155.31;5093085;28;20043;-53
2021/11/16 00:06:35;;;;;;;20.35;14.52;;;;;;;11.57;64.61;99158.34;5092938;28;20103;-53
2021/11/16 00:09:02;;;;;;;22.90;14.57;;;;;;;11.56;64.69;99154.91;5093044;28;20028;-53
2021/11/16 00:11:29;;;;;;;21.90;14.82;;;;;;;11.52;64.40;99160.75;5092885;28;20012;-53
2021/11/16 00:13:55;;;;;;;22.63;15.43;;;;;;;11.52;64.36;99160.75;5092900;28;20489;-53
2021/11/16 00:16:21;;;;;;;21.65;16.17;;;;;;;11.27;64.64;99171.72;5091707;28;20090;-52
2021/11/16 00:18:55;;;;;;;21.50;15.27;;;;;;;11.17;65.74;99168.63;5091450;28;20031;-53
2021/11/16 00:21:24;;;;;;;23.35;13.90;;;;;;;11.45;65.61;99159.88;5092153;28;20383;-53
2021/11/16 00:23:54;;;;;;;21.80;14.20;;;;;;;11.82;64.78;99166.53;5092778;28;20016;-53
2021/11/16 00:26:20;;;;;;;1999.90;999.90;;;;;;;11.92;64.27;99168.84;5092336;28;20497;-53
2021/11/16 00:28:46;;;;;;;439.58;336.13;;;;;;;12.21;64.79;99162.44;5092631;28;20024;-50
2021/11/16 00:31:12;;;;;;;68.57;51.30;;;;;;;12.55;63.39;99165.94;5092493;28;20042;-51
2021/11/16 00:33:38;;;;;;;36.50;25.42;;;;;;;12.42;62.82;99179.91;5091212;28;20052;-51
2021/11/16 00:36:04;;;;;;;27.38;18.83;;;;;;;12.11;63.21;99170.72;5092514;28;20503;-50
2021/11/16 00:38:30;;;;;;;38.80;22.88;;;;;;;12.15;63.70;99169.31;5092375;28;20534;-49
2021/11/16 00:40:56;;;;;;;28.33;17.30;;;;;;;12.37;63.70;99164.72;5092367;28;20035;-51
2021/11/16 00:43:23;;;;;;;24.88;17.25;;;;;;;12.62;62.74;99166.75;5091072;28;20024;-49
2021/11/16 00:45:48;;;;;;;25.30;15.45;;;;;;;12.94;61.96;99161.72;5092265;28;20020;-50
2021/11/16 00:48:17;;;;;;;21.55;14.35;;;;;;;13.12;61.16;99155.78;5091066;28;20043;-51
2021/11/16 00:50:46;;;;;;;21.58;14.05;;;;;;;13.17;60.89;99163.91;5090963;28;20032;-51
2021/11/16 00:53:13;;;;;;;28.33;15.48;;;;;;;13.24;60.70;99158.63;5092186;28;20024;-51
2021/11/16 00:55:38;;;;;;;27.48;15.05;;;;;;;13.33;60.53;99158.22;5092140;28;20436;-51
2021/11/16 00:58:04;;;;;;;22.90;14.65;;;;;;;13.42;60.05;99169.38;5092152;28;20028;-50
2021/11/16 01:00:30;;;;;;;19.35;14.18;;;;;;;13.39;60.04;99170.56;5092072;28;20032;-51
2021/11/16 01:02:57;;;;;;;22.13;13.73;;;;;;;13.38;60.36;99168.97;5092131;28;20073;-50
2021/11/16 01:05:24;;;;;;;25.90;14.57;;;;;;;13.41;59.65;99173.00;5092031;28;20063;-50
2021/11/16 01:07:50;;;;;;;20.15;13.68;;;;;;;13.42;59.96;99172.00;5091991;28;20057;-51
2021/11/16 01:10:19;;;;;;;18.35;12.70;;;;;;;13.43;58.92;99178.09;5092014;28;20028;-50
2021/11/16 01:12:45;;;;;;;24.05;13.75;;;;;;;12.74;59.29;99167.78;5092038;28;20016;-50
2021/11/16 01:15:13;;;;;;;25.40;14.68;;;;;;;12.22;60.99;99166.69;5090604;28;20036;-51
2021/11/16 01:17:39;;;;;;;21.70;14.23;;;;;;;12.14;61.91;99172.16;5090617;28;20115;-51
2021/11/16 01:20:07;;;;;;;24.17;14.35;;;;;;;12.24;61.86;99175.22;5091857;28;20118;-51
2021/11/16 01:22:34;;;;;;;20.08;13.57;;;;;;;12.56;61.92;99176.28;5091883;28;20013;-51
2021/11/16 01:25:01;;;;;;;25.33;13.40;;;;;;;12.72;61.09;99174.28;5091854;28;20389;-51
2021/11/16 01:27:32;;;;;;;30.50;20.17;;;;;;;12.76;60.72;99173.66;5091547;28;20048;-49
2021/11/16 01:29:58;;;;;;;18.65;13.23;;;;;;;12.83;60.84;99172.84;5091909;28;20103;-51
2021/11/16 01:32:39;;;;;;;20.67;14.48;;;;;;;12.71;60.73;99172.63;5091698;28;20054;-50
2021/11/16 01:35:06;;;;;;;21.25;14.23;;;;;;;12.62;61.16;99173.88;5095123;28;20069;-51
2021/11/16 01:37:33;;;;;;;20.85;14.55;;;;;;;12.54;61.32;99170.41;5095790;28;20028;-50
2021/11/16 01:39:58;;;;;;;20.23;13.57;;;;;;;12.52;61.06;99169.00;5094533;28;20092;-51
2021/11/16 01:42:24;;;;;;;20.40;13.65;;;;;;;12.53;61.25;99175.84;5094485;28;20435;-51
2021/11/16 01:44:51;;;;;;;26.45;13.93;;;;;;;12.56;60.74;99172.84;5095740;28;20366;-50
2021/11/16 01:47:18;;;;;;;18.70;13.93;;;;;;;12.29;60.93;99174.59;5094297;28;20127;-50
2021/11/16 01:49:44;;;;;;;22.30;14.23;;;;;;;11.78;61.71;99174.00;5094344;28;20501;-50
2021/11/16 01:52:10;;;;;;;21.13;14.23;;;;;;;11.45;63.09;99165.13;5095640;28;20497;-51
2021/11/16 01:54:36;;;;;;;20.40;14.23;;;;;;;11.48;63.50;99176.09;5095569;28;20023;-51
2021/11/16 01:57:03;;;;;;;18.92;13.70;;;;;;;11.37;63.24;99180.06;5095554;28;20401;-50
2021/11/16 01:59:30;;;;;;;19.50;15.10;;;;;;;11.15;63.86;99176.69;5095802;28;20031;-50
2021/11/16 02:01:57;;;;;;;21.92;15.55;;;;;;;10.90;64.66;99171.03;5095419;28;20028;-49
2021/11/16 02:04:23;;;;;;;20.90;13.90;;;;;;;10.76;64.66;99171.94;5095409;28;20020;-53
2021/11/16 02:06:49;;;;;;;25.65;15.70;;;;;;;10.67;65.71;99170.47;5093960;28;20048;-53
2021/11/16 02:09:17;;;;;;;26.33;15.05;;;;;;;10.76;65.76;99162.25;5095347;28;20498;-52
2021/11/16 02:11:44;;;;;;;21.48;14.77;;;;;;;10.92;65.60;99173.50;5093833;28;20020;-53
2021/11/16 02:14:13;;;;;;;21.83;14.32;;;;;;;10.95;65.37;99167.88;5095228;28;20520;-53
2021/11/16 02:16:39;;;;;;;27.45;18.05;;;;;;;10.99;65.07;99163.84;5095056;28;20035;-53
2021/11/16 02:19:12;;;;;;;23.42;14.57;;;;;;;10.98;65.33;99167.47;5095101;28;20031;-52
2021/11/16 02:21:38;;;;;;;23.38;14.32;;;;;;;11.08;64.51;99164.53;5094947;28;20031;-52
2021/11/16 02:24:06;;;;;;;22.02;14.13;;;;;;;11.07;64.91;99168.97;5093718;28;20111;-53
2021/11/16 02:26:32;;;;;;;20.33;14.15;;;;;;;11.15;65.04;99166.19;5094648;28;20048;-53
2021/11/16 02:28:59;;;;;;;22.20;14.75;;;;;;;11.20;64.65;99160.34;5094920;28;20016;-53
2021/11/16 02:31:24;;;;;;;22.10;14.45;;;;;;;11.22;64.81;99158.34;5094819;28;20484;-53
2021/11/16 02:33:50;;;;;;;18.45;14.48;;;;;;;11.16;64.07;99164.38;5094878;28;20036;-53
2021/11/16 02:36:17;;;;;;;20.08;14.70;;;;;;;10.98;64.89;99156.97;5094759;28;20066;-52
2021/11/16 02:38:44;;;;;;;20.83;14.13;;;;;;;11.02;65.08;99160.03;5094686;28;20554;-52
2021/11/16 02:41:10;;;;;;;24.25;15.20;;;;;;;11.11;65.15;99156.28;5094730;28;20016;-53
2021/11/16 02:43:39;;;;;;;23.52;14.73;;;;;;;11.14;64.92;99150.63;5094643;28;20107;-53
2021/11/16 02:46:04;;;;;;;22.83;14.27;;;;;;;11.13;64.40;99156.88;5093974;28;20020;-52
2021/11/16 02:48:32;;;;;;;23.73;14.40;;;;;;;11.11;64.72;99151.00;5093248;28;20076;-53
2021/11/16 02:51:00;;;;;;;26.00;14.73;;;;;;;11.21;64.73;99154.09;5094453;28;20437;-53
2021/11/16 02:53:27;;;;;;;26.92;14.95;;;;;;;11.22;64.84;99149.66;5093148;28;20078;-52
2021/11/16 02:55:54;;;;;;;35.08;26.90;;;;;;;11.20;64.52;99147.22;5094323;28;20528;-53
2021/11/16 02:58:21;;;;;;;22.45;15.23;;;;;;;11.25;64.54;99142.22;5094414;28;20023;-52
2021/11/16 03:00:54;;;;;;;22.10;15.35;;;;;;;11.33;64.30;99141.25;5076059;28;20031;-53
2021/11/16 03:03:21;;;;;;;21.33;14.38;;;;;;;11.31;63.94;99133.56;5094372;28;20075;-53
2021/11/16 03:05:48;;;;;;;20.83;13.90;;;;;;;11.14;64.52;99146.16;5094149;28;20559;-53
2021/11/16 03:08:23;;;;;;;23.58;15.30;;;;;;;11.03;64.55;99148.50;5094177;28;20039;-52
2021/11/16 03:10:51;;;;;;;21.53;15.57;;;;;;;11.05;64.69;99147.34;5094214;28;20028;-53
2021/11/16 03:13:18;;;;;;;23.23;15.63;;;;;;;10.88;64.95;99144.16;5094134;28;20050;-53
2021/11/16 03:15:45;;;;;;;21.70;14.63;;;;;;;10.90;65.28;99136.09;5094019;28;20024;-53
2021/11/16 03:18:12;;;;;;;19.08;13.80;;;;;;;11.07;65.17;99141.91;5094007;28;20447;-52
2021/11/16 03:20:38;;;;;;;28.75;15.23;;;;;;;11.17;64.71;99143.16;5093994;28;20031;-52
2021/11/16 03:23:11;;;;;;;22.75;14.48;;;;;;;11.15;64.22;99136.50;5093937;28;20035;-53
2021/11/16 03:25:42;;;;;;;22.40;16.52;;;;;;;10.82;64.49;99138.88;5093618;28;20493;-53
2021/11/16 03:28:10;;;;;;;26.58;17.15;;;;;;;10.34;65.80;99128.97;5092442;28;20031;-52
2021/11/16 03:30:38;;;;;;;1740.38;949.72;;;;;;;10.23;67.05;99135.50;5093667;28;20016;-53
2021/11/16 03:33:04;;;;;;;83.47;52.63;;;;;;;10.47;66.70;99134.34;5093685;28;20110;-53
2021/11/16 03:35:31;;;;;;;32.67;19.48;;;;;;;10.70;66.02;99136.75;5093627;28;20108;-52
2021/11/16 03:37:59;;;;;;;26.20;16.95;;;;;;;10.91;65.53;99138.56;5092274;28;20565;-52
2021/11/16 03:40:27;;;;;;;29.83;16.38;;;;;;;11.05;65.02;99136.81;5093490;28;20521;-52
2021/11/16 03:42:53;;;;;;;25.27;15.95;;;;;;;11.14;64.80;99137.47;5093486;28;20023;-52
2021/11/16 03:45:23;;;;;;;23.90;16.65;;;;;;;11.06;64.21;99138.44;5092130;28;20024;-53
2021/11/16 03:47:50;;;;;;;22.67;15.10;;;;;;;10.74;65.00;99135.38;5093437;28;20497;-53
2021/11/16 03:50:19;;;;;;;22.55;14.95;;;;;;;10.62;65.51;99130.84;5093365;28;20028;-52
2021/11/16 03:52:49;;;;;;;25.65;16.55;;;;;;;10.46;65.60;99137.16;5093359;28;20012;-53
2021/11/16 03:55:15;;;;;;;26.33;15.65;;;;;;;10.31;66.14;99135.41;5092055;28;20036;-53
2021/11/16 03:57:41;;;;;;;28.63;15.70;;;;;;;10.33;66.83;99136.03;5092275;28;20032;-53
2021/11/16 04:00:16;;;;;;;29.15;14.95;;;;;;;10.44;66.59;99136.53;5093105;28;20031;-53
2021/11/16 04:02:43;;;;;;;27.58;15.32;;;;;;;10.43;66.34;99133.13;5093174;28;20062;-53
2021/11/16 04:05:10;;;;;;;25.42;15.55;;;;;;;10.46;66.89;99129.28;5092990;28;20036;-53
2021/11/16 04:07:36;;;;;;;26.95;15.52;;;;;;;10.72;66.33;99126.06;5092962;28;20501;-53
2021/11/16 04:10:07;;;;;;;20.05;13.88;;;;;;;11.19;65.68;99117.50;5092908;28;20035;-52
2021/11/16 04:12:33;;;;;;;25.95;14.88;;;;;;;11.53;64.45;99115.88;5092983;28;20459;-53
2021/11/16 04:14:59;;;;;;;24.85;14.48;;;;;;;11.86;63.53;99109.91;5091556;28;20108;-53
2021/11/16 04:17:24;;;;;;;24.77;15.55;;;;;;;11.85;63.12;99116.19;5092812;28;20375;-53
2021/11/16 04:19:50;;;;;;;21.80;14.15;;;;;;;12.14;62.63;99114.25;5091471;28;20024;-53
2021/11/16 04:22:21;;;;;;;27.77;14.43;;;;;;;12.27;61.37;99106.38;5092742;28;20065;-53
2021/11/16 04:24:47;;;;;;;21.60;13.55;;;;;;;12.45;61.79;99111.03;5091398;28;20505;-53
2021/11/16 04:27:13;;;;;;;22.35;14.60;;;;;;;12.57;60.76;99103.34;5091003;28;20048;-53
2021/11/16 04:29:38;;;;;;;31.70;15.93;;;;;;;12.75;60.70;99108.81;5092622;28;20028;-53
2021/11/16 04:32:05;;;;;;;22.65;14.27;;;;;;;12.93;60.19;99104.75;5092532;28;20024;-53
2021/11/16 04:34:30;;;;;;;19.45;13.13;;;;;;;12.99;59.55;99110.00;5092539;28;20024;-53
2021/11/16 04:36:56;;;;;;;21.48;14.25;;;;;;;13.13;59.04;99104.72;5091137;28;20031;-53
2021/11/16 04:39:22;;;;;;;23.30;14.13;;;;;;;13.17;58.91;99103.28;5092460;28;20494;-53
2021/11/16 04:41:48;;;;;;;16.70;12.95;;;;;;;13.25;58.42;99104.91;5092413;28;20402;-54
2021/11/16 04:44:13;;;;;;;20.17;13.50;;;;;;;13.25;58.37;99107.53;5092401;28;20089;-54
2021/11/16 04:46:39;;;;;;;28.00;14.98;;;;;;;13.22;57.90;99103.50;5092254;28;20023;-52
2021/11/16 04:49:20;;;;;;;18.50;12.75;;;;;;;13.15;58.10;99103.50;5092282;28;20024;-53
2021/11/16 04:51:57;;;;;;;20.98;13.40;;;;;;;13.09;58.04;99103.50;5092378;28;20493;-53
2021/11/16 05:02:42;;;;;;;26.00;13.18;;;;;;;13.01;58.18;99095.81;5092207;28;20495;-53
2021/11/16 05:05:11;;;;;;;20.95;13.27;;;;;;;13.07;57.98;99105.53;5092143;28;20024;-53
2021/11/16 05:07:43;;;;;;;22.92;13.63;;;;;;;13.07;58.07;99100.28;5091768;28;20035;-53
2021/11/16 05:10:09;;;;;;;19.50;13.60;;;;;;;13.09;57.91;99100.88;5092034;28;20035;-53
2021/11/16 05:12:35;;;;;;;20.27;13.57;;;;;;;13.06;57.58;99106.53;5090678;28;20028;-53
2021/11/16 05:15:07;;;;;;;30.23;15.40;;;;;;;12.98;57.71;99104.97;5091910;28;20017;-53
2021/11/16 05:17:33;;;;;;;20.65;13.30;;;;;;;12.96;57.71;99107.00;5090657;28;20382;-53
2021/11/16 05:19:58;;;;;;;22.10;14.30;;;;;;;12.89;58.12;99103.53;5090602;28;20573;-53
2021/11/16 05:22:24;;;;;;;21.05;14.02;;;;;;;12.84;58.10;99104.16;5091895;28;20114;-53
2021/11/16 05:24:50;;;;;;;27.58;16.00;;;;;;;12.87;58.31;99109.00;5091868;28;20087;-53
2021/11/16 05:27:16;;;;;;;26.20;13.32;;;;;;;12.83;58.25;99099.09;5090185;28;20040;-53
2021/11/16 05:29:43;;;;;;;19.33;13.57;;;;;;;12.84;58.01;99106.81;5092091;28;20040;-53
2021/11/16 05:32:09;;;;;;;20.95;13.20;;;;;;;12.85;58.18;99100.50;5091706;28;20057;-53
2021/11/16 05:34:35;;;;;;;24.65;13.73;;;;;;;12.82;57.92;99108.00;5091843;28;20024;-53
2021/11/16 05:37:01;;;;;;;32.35;14.18;;;;;;;12.79;58.06;99109.22;5091743;28;20035;-53
2021/11/16 05:39:26;;;;;;;21.23;14.10;;;;;;;12.76;58.34;99101.75;5091791;28;20111;-53
2021/11/16 05:41:53;;;;;;;24.88;14.23;;;;;;;12.78;58.23;99104.97;5091787;28;20095;-53
2021/11/16 05:44:19;;;;;;;23.50;14.70;;;;;;;12.87;58.46;99108.22;5091704;28;20383;-53
2021/11/16 05:46:45;;;;;;;22.90;13.40;;;;;;;12.96;57.91;99110.44;5090235;28;20074;-53
2021/11/16 05:49:11;;;;;;;20.92;13.85;;;;;;;12.99;58.02;99103.94;5091650;28;20051;-53
2021/11/16 05:51:37;;;;;;;25.85;14.02;;;;;;;12.94;57.58;99101.91;5091625;28;20501;-53
2021/11/16 05:54:05;;;;;;;32.53;14.77;;;;;;;12.87;58.17;99103.75;5090289;28;20056;-52
2021/11/16 05:56:35;;;;;;;25.88;15.35;;;;;;;12.94;57.96;99098.47;5091583;28;20106;-53
2021/11/16 05:59:03;;;;;;;21.92;13.30;;;;;;;13.05;57.76;99100.47;5090257;28;20220;-53
2021/11/16 06:01:31;;;;;;;23.92;14.38;;;;;;;12.94;57.60;99104.56;5090176;28;20085;-53
2021/11/16 06:03:58;;;;;;;28.98;14.70;;;;;;;12.83;57.78;99109.63;5091480;28;20031;-53
2021/11/16 06:06:32;;;;;;;23.17;14.52;;;;;;;12.07;58.14;99106.34;5091376;28;20756;-53
2021/11/16 06:09:00;;;;;;;27.70;15.50;;;;;;;11.56;60.44;99114.66;5091396;28;20421;-53
2021/11/16 06:11:27;;;;;;;33.85;14.60;;;;;;;11.36;60.78;99109.31;5091451;28;20424;-53
2021/11/16 06:13:55;;;;;;;32.22;15.80;;;;;;;11.25;61.37;99109.84;5090099;28;20090;-53
2021/11/16 06:16:22;;;;;;;24.30;14.57;;;;;;;11.20;61.30;99115.69;5091370;28;20050;-53
2021/11/16 06:18:51;;;;;;;28.80;16.33;;;;;;;10.82;61.95;99121.31;5091274;28;20020;-53
2021/11/16 06:21:18;;;;;;;29.65;14.18;;;;;;;10.65;63.08;99117.34;5094613;28;20024;-52
2021/11/16 06:23:45;;;;;;;27.30;14.82;;;;;;;10.72;63.15;99131.31;5095001;28;20031;-52
2021/11/16 06:26:11;;;;;;;29.40;15.98;;;;;;;10.81;63.14;99130.19;5094687;28;20080;-52
2021/11/16 06:28:37;;;;;;;27.98;15.27;;;;;;;10.87;63.03;99129.44;5094978;28;20489;-53
2021/11/16 06:31:03;;;;;;;25.35;15.07;;;;;;;10.89;63.00;99130.06;5094898;28;20049;-53
2021/11/16 06:33:29;;;;;;;21.33;14.48;;;;;;;10.85;63.03;99134.06;5094894;28;20104;-53
2021/11/16 06:35:55;;;;;;;26.70;14.60;;;;;;;10.89;63.12;99131.88;5094772;28;20054;-53
2021/11/16 06:38:20;;;;;;;35.33;16.27;;;;;;;10.95;63.72;99134.53;5093441;28;20035;-52
2021/11/16 06:40:49;;;;;;;34.20;16.10;;;;;;;11.08;62.69;99138.25;5094743;28;20032;-53
2021/11/16 06:43:26;;;;;;;27.98;16.55;;;;;;;10.71;63.55;99140.22;5094741;28;20059;-52
2021/11/16 06:45:54;;;;;;;26.35;16.58;;;;;;;10.56;63.94;99140.28;5093294;28;20024;-53
2021/11/16 06:48:21;;;;;;;28.83;16.48;;;;;;;10.62;64.90;99146.59;5094595;28;20020;-53
2021/11/16 06:50:48;;;;;;;26.10;15.90;;;;;;;10.85;63.87;99147.19;5094542;28;20032;-53
2021/11/16 06:53:21;;;;;;;23.35;16.00;;;;;;;10.76;63.73;99145.69;5094563;28;20161;-52
2021/11/16 06:55:47;;;;;;;31.13;16.63;;;;;;;10.76;64.13;99148.31;5094459;28;20516;-53
2021/11/16 06:58:13;;;;;;;28.85;15.68;;;;;;;10.84;63.57;99153.44;5094467;28;20020;-53
2021/11/16 07:00:38;;;;;;;24.45;13.85;;;;;;;10.72;63.82;99147.06;5094404;28;20027;-53
2021/11/16 07:03:04;;;;;;;24.73;15.38;;;;;;;10.62;64.03;99146.59;5094312;28;20087;-52
2021/11/16 07:05:31;;;;;;;24.95;14.80;;;;;;;10.50;64.33;99146.28;5094315;28;20428;-53
2021/11/16 07:07:57;;;;;;;29.17;14.73;;;;;;;10.60;64.92;99149.41;5094184;28;20028;-52
2021/11/16 07:10:26;;;;;;;27.88;16.27;;;;;;;10.65;64.48;99152.28;5092824;28;20031;-52
2021/11/16 07:12:52;;;;;;;26.63;15.48;;;;;;;10.63;64.44;99161.34;5094128;28;20030;-52
2021/11/16 07:15:21;;;;;;;38.95;16.73;;;;;;;10.73;64.46;99153.97;5094056;28;20020;-53
2021/11/16 07:17:48;;;;;;;23.35;15.20;;;;;;;10.74;64.16;99168.69;5092706;28;20110;-52
2021/11/16 07:20:15;;;;;;;25.38;16.23;;;;;;;10.82;64.20;99163.31;5094029;28;20050;-53
2021/11/16 07:22:41;;;;;;;29.42;14.55;;;;;;;10.86;64.00;99161.94;5093927;28;20024;-52
2021/11/16 07:25:11;;;;;;;29.40;19.08;;;;;;;10.96;63.85;99167.66;5092541;28;20378;-52
2021/11/16 07:27:46;;;;;;;27.83;15.40;;;;;;;11.04;63.46;99176.41;5092190;28;20177;-53
2021/11/16 07:30:30;;;;;;;25.45;16.02;;;;;;;10.87;63.77;99171.44;5092414;28;20510;-53
2021/11/16 07:33:02;;;;;;;31.58;16.17;;;;;;;11.05;64.16;99173.59;5093797;28;20032;-53
2021/11/16 07:35:30;;;;;;;24.90;15.73;;;;;;;11.17;63.50;99174.69;5093746;28;20019;-53
2021/11/16 07:38:03;;;;;;;29.15;16.13;;;;;;;11.29;63.33;99182.84;5093616;28;20027;-53
2021/11/16 07:40:29;;;;;;;37.92;20.67;;;;;;;11.13;63.33;99175.28;5093604;28;20024;-53
2021/11/16 07:43:02;;;;;;;33.38;21.13;;;;;;;11.18;63.79;99184.19;5093516;28;20039;-53
2021/11/16 07:45:41;;;;;;;40.97;25.38;;;;;;;11.31;63.20;99183.47;5093556;28;20448;-53
2021/11/16 07:48:18;;;;;;;39.13;26.65;;;;;;;11.49;63.23;99190.03;5093471;28;20024;-53
2021/11/16 07:50:53;;;;;;;28.95;17.15;;;;;;;11.38;62.21;99186.94;5093357;28;20024;-53
2021/11/16 07:53:32;;;;;;;29.70;18.15;;;;;;;11.01;63.29;99182.88;5093345;28;20020;-53
2021/11/16 07:56:11;;;;;;;26.23;16.27;;;;;;;10.70;63.64;99185.81;5093297;28;20024;-52
2021/11/16 07:58:57;;;;;;;32.20;15.68;;;;;;;10.66;64.23;99189.84;5093219;28;20027;-53
2021/11/16 08:01:35;;;;;;;25.85;16.63;;;;;;;10.94;64.25;99195.94;5093231;28;20486;-53
2021/11/16 08:14:45;;;;;;;25.27;13.95;;;;;;;12.01;61.46;99183.41;5093183;28;20493;-53
2021/11/16 08:17:11;;;;;;;22.88;13.68;;;;;;;12.08;60.52;99191.34;5092862;28;20026;-53
2021/11/16 08:19:40;;;;;;;27.80;15.20;;;;;;;11.85;61.10;99197.72;5092818;28;20110;-53
2021/11/16 08:22:10;;;;;;;20.15;13.73;;;;;;;11.82;61.05;99198.09;5093184;28;20015;-53
2021/11/16 08:24:39;;;;;;;21.67;14.07;;;;;;;11.60;61.18;99202.63;5092724;28;20493;-53
2021/11/16 08:27:11;;;;;;;18.90;12.95;;;;;;;11.55;61.57;99199.75;5092180;28;20047;-53
2021/11/16 08:29:44;;;;;;;21.70;15.15;;;;;;;11.51;61.56;99203.78;5091337;28;20040;-53
2021/11/16 08:32:22;;;;;;;28.05;14.43;;;;;;;11.54;61.91;99200.78;5092582;28;20059;-53
2021/11/16 08:34:56;;;;;;;23.90;14.65;;;;;;;11.63;62.32;99202.25;5092550;28;20028;-53
2021/11/16 08:37:26;;;;;;;26.05;15.85;;;;;;;12.14;61.56;99209.78;5092570;28;20046;-53
2021/11/16 08:40:00;;;;;;;22.58;13.43;;;;;;;12.43;59.97;99204.41;5091225;28;20040;-52
2021/11/16 08:42:33;;;;;;;25.20;14.55;;;;;;;12.15;59.75;99197.44;5092073;28;20032;-53
2021/11/16 08:45:04;;;;;;;22.70;15.57;;;;;;;12.14;60.03;99201.91;5091203;28;20038;-53
2021/11/16 08:47:33;;;;;;;23.90;15.20;;;;;;;11.94;60.44;99206.28;5092379;28;20561;-53
2021/11/16 08:50:01;;;;;;;27.90;14.85;;;;;;;11.82;60.63;99199.91;5092432;28;20028;-53
2021/11/16 08:52:29;;;;;;;23.85;15.38;;;;;;;11.76;60.88;99212.84;5091004;28;20054;-53
2021/11/16 08:55:05;;;;;;;23.65;15.73;;;;;;;11.57;61.04;99210.94;5090972;28;20562;-53
2021/11/16 08:57:34;;;;;;;31.30;15.38;;;;;;;11.41;62.06;99212.03;5091030;28;20046;-53
2021/11/16 09:00:13;;;;;;;22.60;15.05;;;;;;;11.60;61.59;99207.91;5090783;28;20024;-53
2021/11/16 09:02:39;;;;;;;22.85;14.10;;;;;;;11.77;61.25;99206.59;5092147;28;20039;-53
2021/11/16 09:05:13;;;;;;;32.05;17.80;;;;;;;11.87;61.60;99202.75;5092125;28;20020;-53
2021/11/16 09:08:00;;;;;;;32.30;15.13;;;;;;;12.18;60.28;99203.13;5092041;28;20056;-53
2021/11/16 09:10:46;;;;;;;1467.70;904.85;;;;;;;12.51;60.19;99207.66;5092021;28;20051;-54
2021/11/16 09:13:15;;;;;;;215.20;163.00;;;;;;;12.89;59.85;99206.28;5092053;28;20097;-54
2021/11/16 09:15:43;;;;;;;52.03;46.22;;;;;;;12.96;58.33;99210.53;5091914;28;20028;-53
2021/11/16 09:18:36;;;;;;;32.30;21.30;;;;;;;12.78;58.69;99202.44;5091979;28;20051;-53
2021/11/16 09:21:07;;;;;;;25.42;16.05;;;;;;;13.03;58.49;99202.63;5091874;28;20036;-53
2021/11/16 09:23:44;;;;;;;28.08;18.60;;;;;;;13.29;58.01;99199.19;5091908;28;20032;-52
2021/11/16 09:28:59;;;;;;;24.52;16.17;;;;;;;13.37;56.21;99208.72;5091906;28;20063;-53
2021/11/16 09:31:41;;;;;;;22.85;14.35;;;;;;;13.15;56.58;99205.47;5090479;28;20127;-53
2021/11/16 09:34:32;;;;;;;27.42;15.30;;;;;;;12.95;57.31;99208.91;5091841;28;20490;-53
2021/11/16 09:37:01;;;;;;;25.67;15.20;;;;;;;12.97;57.52;99216.63;5091764;28;20020;-53
2021/11/16 09:39:30;;;;;;;22.65;15.02;;;;;;;13.09;56.43;99216.81;5090404;28;20040;-53
2021/11/16 09:41:59;;;;;;;22.63;14.50;;;;;;;13.02;56.97;99218.63;5091674;28;20149;-53
2021/11/16 09:44:47;;;;;;;421.25;316.15;;;;;;;12.77;57.28;99220.03;5091629;28;20024;-53
2021/11/16 09:47:24;;;;;;;57.33;27.23;;;;;;;12.74;57.56;99217.81;5091619;28;20085;-53
2021/11/16 09:49:57;;;;;;;28.48;17.13;;;;;;;12.51;57.59;99212.09;5091628;28;20027;-53
2021/11/16 09:52:31;;;;;;;28.77;16.00;;;;;;;12.36;58.24;99214.91;5090256;28;20494;-53
2021/11/16 09:55:06;;;;;;;32.10;16.10;;;;;;;12.59;58.63;99212.72;5092959;28;20073;-53
2021/11/16 09:57:55;;;;;;;24.10;15.38;;;;;;;13.03;57.16;99209.72;5094339;28;20052;-53
2021/11/16 10:00:31;;;;;;;28.23;14.65;;;;;;;13.18;56.45;99218.25;5095628;28;20028;-53
2021/11/16 10:03:00;;;;;;;35.20;15.55;;;;;;;12.93;56.41;99216.19;5095546;28;20049;-53
2021/11/16 10:05:28;;;;;;;22.60;13.95;;;;;;;12.64;56.82;99217.41;5095462;28;20435;-53
2021/11/16 10:07:57;;;;;;;26.48;15.25;;;;;;;12.38;57.82;99216.34;5095352;28;20474;-53
2021/11/16 10:10:26;;;;;;;24.48;14.80;;;;;;;12.35;58.26;99213.28;5095353;28;20052;-53
2021/11/16 10:12:57;;;;;;;21.65;13.80;;;;;;;12.72;57.48;99216.41;5095296;28;20016;-53
2021/11/16 10:15:30;;;;;;;20.90;13.70;;;;;;;12.62;57.38;99210.72;5095336;28;20039;-53
2021/11/16 10:17:56;;;;;;;31.90;14.57;;;;;;;12.66;57.81;99209.31;5095219;28;20061;-53
2021/11/16 10:20:26;;;;;;;28.65;15.25;;;;;;;12.83;56.99;99213.16;5095147;28;20028;-53
2021/11/16 10:22:57;;;;;;;24.20;13.55;;;;;;;12.89;56.73;99214.19;5095428;28;20397;-53
2021/11/16 10:25:26;;;;;;;27.38;14.38;;;;;;;12.74;57.69;99202.03;5093861;28;20480;-53
2021/11/16 10:27:55;;;;;;;23.55;12.52;;;;;;;13.12;57.03;99206.69;5094803;28;20044;-53
2021/11/16 10:30:22;;;;;;;23.55;13.55;;;;;;;13.41;56.49;99204.66;5095030;28;20393;-53
2021/11/16 10:33:12;;;;;;;23.85;13.43;;;;;;;13.44;56.06;99206.88;5095094;28;20140;-53
2021/11/16 10:35:49;;;;;;;23.10;13.13;;;;;;;13.74;55.59;99204.56;5094935;28;20020;-53
2021/11/16 10:38:31;;;;;;;31.63;13.95;;;;;;;14.19;54.59;99196.66;5094972;28;20085;-53
2021/11/16 10:41:00;;;;;;;25.80;12.57;;;;;;;14.42;53.79;99202.44;5093537;28;20032;-53
2021/11/16 10:43:49;;;;;;;29.67;13.52;;;;;;;14.40;53.48;99194.72;5094742;28;20031;-53
2021/11/16 10:46:18;;;;;;;24.85;13.20;;;;;;;14.27;53.73;99192.97;5094669;28;20025;-54
2021/11/16 10:48:45;;;;;;;29.67;14.10;;;;;;;14.46;53.34;99193.88;5093351;28;20036;-53
2021/11/16 10:51:13;;;;;;;35.47;14.60;;;;;;;14.62;52.84;99197.84;5094595;28;20032;-53
2021/11/16 10:53:45;;;;;;;22.65;13.52;;;;;;;14.61;52.68;99200.72;5093744;28;20377;-54
2021/11/16 10:56:18;;;;;;;23.50;13.57;;;;;;;14.47;52.28;99199.97;5094480;28;20028;-53
2021/11/16 10:58:44;;;;;;;21.08;13.95;;;;;;;14.16;52.95;99191.00;5094528;28;20035;-53
2021/11/16 11:01:15;;;;;;;25.50;14.50;;;;;;;14.02;53.92;99197.34;5094403;28;20024;-53
2021/11/16 11:03:44;;;;;;;22.58;13.00;;;;;;;14.12;53.47;99193.22;5094419;28;20039;-53
2021/11/16 11:06:14;;;;;;;28.33;14.07;;;;;;;14.05;53.13;99192.47;5092407;28;20382;-52
2021/11/16 11:08:46;;;;;;;17.02;13.18;;;;;;;13.97;52.69;99192.72;5094307;28;20112;-53
2021/11/16 11:11:32;;;;;;;17.10;12.63;;;;;;;13.75;53.11;99189.56;5092839;28;20497;-53
2021/11/16 11:14:10;;;;;;;21.45;13.15;;;;;;;13.52;54.08;99188.22;5094238;28;20028;-53
2021/11/16 11:16:43;;;;;;;28.70;13.95;;;;;;;13.31;54.29;99183.97;5094109;28;20024;-53
2021/11/16 11:19:16;;;;;;;19.67;12.32;;;;;;;13.21;54.61;99175.66;5094089;28;20028;-53
2021/11/16 11:21:54;;;;;;;17.63;11.98;;;;;;;13.33;54.44;99174.03;5094096;28;20036;-53
2021/11/16 11:24:27;;;;;;;17.55;11.93;;;;;;;13.35;53.44;99156.19;5094077;28;20039;-53
2021/11/16 11:27:01;;;;;;;17.42;11.13;;;;;;;13.40;53.91;99158.22;5092294;28;20510;-53
2021/11/16 11:29:54;;;;;;;17.10;12.27;;;;;;;13.44;53.79;99155.97;5093922;28;20107;-53
2021/11/16 11:32:38;;;;;;;17.73;12.15;;;;;;;13.18;54.09;99157.63;5093807;28;20103;-53
2021/11/16 11:35:10;;;;;;;17.83;11.85;;;;;;;13.13;54.67;99155.59;5092442;28;20039;-53
2021/11/16 11:37:45;;;;;;;24.13;13.10;;;;;;;13.04;54.92;99154.19;5093719;28;20020;-53
2021/11/16 11:40:21;;;;;;;24.55;13.02;;;;;;;13.01;55.53;99151.16;5092317;28;20024;-53
2021/11/16 11:42:49;;;;;;;20.50;11.68;;;;;;;13.10;55.03;99152.53;5093701;28;20040;-52
2021/11/16 11:45:40;;;;;;;16.73;11.30;;;;;;;13.15;54.91;99152.75;5093514;28;20016;-52
2021/11/16 11:48:21;;;;;;;19.77;11.50;;;;;;;13.12;54.62;99143.44;5090643;28;20040;-53
2021/11/16 11:50:49;;;;;;;19.88;10.18;;;;;;;13.10;54.74;99147.28;5093729;28;20028;-53